Time;durP1;ratioP1;P1;durP2;ratioP2;P2;SDS_P1;SDS_P2;PMS_P1;PMS_P2;Temp;Humidity;BMP_temperature;BMP_pressure;BME280_temperature;BME280_humidity;BME280_pressure;Samples;Min_cycle;Max_cycle;Signal;HPM_P1;HPM_P2
2021/12/06 00:02:17;;;;;;;12.52;5.25;;;5.40;72.20;;;;;;2555669;53;20954;-74
2021/12/06 00:04:43;;;;;;;;;;;5.40;71.60;;;;;;2591847;53;20961;-71
2021/12/06 00:07:12;;;;;;;16.52;6.22;;;5.50;71.40;;;;;;2558138;53;20513;-71
2021/12/06 00:09:38;;;;;;;16.58;7.05;;;5.50;72.10;;;;;;2339670;54;20960;-72
2021/12/06 00:12:05;;;;;;;18.85;8.10;;;5.50;72.20;;;;;;2327722;54;21046;-71
2021/12/06 00:14:35;;;;;;;24.60;10.15;;;5.50;73.00;;;;;;2323297;54;20973;-71
2021/12/06 00:17:04;;;;;;;22.60;10.15;;;5.50;72.30;;;;;;2530596;53;21022;-73
2021/12/06 00:19:30;;;;;;;21.62;9.55;;;5.50;72.30;;;;;;2326143;54;21898;-71
2021/12/06 00:21:58;;;;;;;18.80;8.02;;;5.50;72.20;;;;;;2572154;53;20945;-71
2021/12/06 00:24:25;;;;;;;19.08;7.43;;;5.50;72.10;;;;;;2309639;54;21056;-71
2021/12/06 00:26:52;;;;;;;16.17;6.85;;;5.50;72.10;;;;;;2570122;53;20973;-73
2021/12/06 00:29:19;;;;;;;13.38;6.22;;;5.60;72.00;;;;;;2587726;53;21340;-71
2021/12/06 00:31:46;;;;;;;17.52;7.65;;;5.50;71.60;;;;;;2340897;54;21009;-70
2021/12/06 00:34:16;;;;;;;14.23;7.03;;;5.50;71.50;;;;;;2318447;54;20952;-73
2021/12/06 00:36:51;;;;;;;10.45;4.82;;;5.50;71.30;;;;;;2341976;54;20972;-72
2021/12/06 00:39:17;;;;;;;9.90;4.43;;;5.50;71.20;;;;;;2324977;54;20938;-72
2021/12/06 00:41:44;;;;;;;7.18;3.47;;;5.50;71.20;;;;;;2575914;53;21717;-74
2021/12/06 00:44:10;;;;;;;9.35;3.55;;;5.50;71.30;;;;;;2317786;54;21445;-71
2021/12/06 00:46:37;;;;;;;6.95;3.00;;;5.40;71.20;;;;;;2554060;53;21580;-73
2021/12/06 00:49:08;;;;;;;8.43;3.87;;;5.40;71.30;;;;;;2578972;53;21051;-70
2021/12/06 00:51:34;;;;;;;8.95;3.95;;;5.40;71.20;;;;;;2564304;53;20952;-72
2021/12/06 00:54:01;;;;;;;7.72;3.60;;;5.40;71.20;;;;;;2339945;54;21010;-73
2021/12/06 00:56:27;;;;;;;6.45;3.30;;;5.40;71.20;;;;;;2322844;54;21005;-71
2021/12/06 00:58:54;;;;;;;7.68;3.85;;;5.40;72.00;;;;;;2341378;54;21931;-73
2021/12/06 01:01:21;;;;;;;7.97;3.42;;;5.40;71.40;;;;;;2587665;53;20904;-72
2021/12/06 01:03:49;;;;;;;7.22;3.37;;;5.40;71.40;;;;;;2568829;53;20955;-73
2021/12/06 01:06:15;;;;;;;6.90;3.45;;;5.40;71.40;;;;;;2574544;53;20976;-73
2021/12/06 01:08:41;;;;;;;5.47;2.80;;;5.40;71.30;;;;;;2343838;54;20979;-73
2021/12/06 01:11:35;;;;;;;5.18;2.90;;;5.40;71.20;;;;;;2304143;57;21045;-73
2021/12/06 01:14:02;;;;;;;6.80;3.33;;;5.40;70.70;;;;;;2587967;53;20985;-73
2021/12/06 01:16:29;;;;;;;5.62;2.92;;;5.30;70.50;;;;;;2587732;53;20973;-72
2021/12/06 01:18:57;;;;;;;6.12;2.70;;;5.30;70.20;;;;;;2341564;54;21004;-73
2021/12/06 01:21:43;;;;;;;5.70;2.50;;;5.30;70.10;;;;;;2341932;54;20992;-71
2021/12/06 01:24:11;;;;;;;4.78;1.90;;;5.20;69.90;;;;;;2341616;54;21312;-73
2021/12/06 01:27:01;;;;;;;4.70;1.70;;;5.20;70.00;;;;;;2554086;53;20957;-73
2021/12/06 01:40:55;;;;;;;5.43;2.55;;;5.10;71.40;;;;;;2326809;54;21018;-71
2021/12/06 01:43:22;;;;;;;7.28;3.20;;;5.10;71.70;;;;;;2332525;54;21405;-72
2021/12/06 01:45:48;;;;;;;9.93;3.40;;;5.10;71.80;;;;;;2588275;53;21549;-72
2021/12/06 01:48:14;;;;;;;9.65;4.65;;;5.10;72.10;;;;;;2341317;54;20901;-73
2021/12/06 01:50:40;;;;;;;8.80;4.20;;;5.10;72.20;;;;;;2341715;54;21080;-72
2021/12/06 01:53:07;;;;;;;6.60;3.35;;;5.10;72.40;;;;;;2587720;53;21032;-72
2021/12/06 01:55:35;;;;;;;5.57;2.40;;;5.10;72.40;;;;;;2555439;53;21032;-71
2021/12/06 01:58:03;;;;;;;4.10;2.20;;;5.20;72.50;;;;;;2582104;53;20998;-73
2021/12/06 02:00:32;;;;;;;5.28;2.08;;;5.20;72.50;;;;;;2561581;53;20925;-71
2021/12/06 02:02:58;;;;;;;4.37;2.00;;;5.20;72.40;;;;;;2587106;53;20960;-71
2021/12/06 02:05:25;;;;;;;4.50;2.00;;;5.30;72.60;;;;;;2341685;54;21012;-73
2021/12/06 02:07:51;;;;;;;4.10;1.90;;;5.30;72.60;;;;;;2336231;54;20999;-73
2021/12/06 02:10:18;;;;;;;5.30;2.30;;;5.30;72.60;;;;;;2304550;54;21047;-72
2021/12/06 02:12:46;;;;;;;5.60;2.60;;;5.30;72.50;;;;;;2578476;53;21016;-71
2021/12/06 02:15:34;;;;;;;4.35;2.17;;;5.30;72.60;;;;;;2586724;53;20973;-72
2021/12/06 02:18:11;;;;;;;5.03;2.33;;;5.40;72.60;;;;;;2322607;54;21103;-71
2021/12/06 02:20:50;;;;;;;4.07;2.08;;;5.40;72.60;;;;;;2319555;54;20945;-73
2021/12/06 02:23:16;;;;;;;4.47;2.08;;;5.40;72.70;;;;;;2344413;54;20940;-73
2021/12/06 02:25:43;;;;;;;4.37;2.12;;;5.50;72.90;;;;;;2319194;54;20996;-71
2021/12/06 02:28:09;;;;;;;4.72;2.03;;;5.50;72.90;;;;;;2314757;54;21027;-72
2021/12/06 02:30:37;;;;;;;4.93;2.10;;;5.50;73.00;;;;;;2522639;54;21099;-72
2021/12/06 02:33:03;;;;;;;5.40;2.35;;;5.60;73.10;;;;;;2312260;54;20933;-72
2021/12/06 02:35:29;;;;;;;3.50;1.87;;;5.60;73.10;;;;;;2314588;54;21017;-72
2021/12/06 02:37:56;;;;;;;4.62;2.03;;;5.60;73.20;;;;;;2554971;54;20991;-73
2021/12/06 02:40:25;;;;;;;4.12;1.92;;;5.60;73.20;;;;;;2314540;54;20987;-70
2021/12/06 02:42:52;;;;;;;4.78;2.08;;;5.70;73.20;;;;;;2550792;53;21528;-72
2021/12/06 02:45:20;;;;;;;3.67;1.83;;;5.70;73.00;;;;;;2549805;53;20949;-73
2021/12/06 02:47:52;;;;;;;4.07;1.95;;;5.70;72.90;;;;;;2552520;54;21797;-71
2021/12/06 02:50:19;;;;;;;4.40;2.12;;;5.70;72.90;;;;;;2314323;54;20982;-70
2021/12/06 02:52:46;;;;;;;5.03;2.22;;;5.70;72.80;;;;;;2550086;53;21060;-71
2021/12/06 02:55:29;;;;;;;4.22;2.12;;;5.80;72.90;;;;;;2314837;54;20995;-72
2021/12/06 02:58:02;;;;;;;4.45;2.08;;;5.80;72.90;;;;;;2305860;54;20948;-71
2021/12/06 03:00:33;;;;;;;4.15;2.12;;;5.80;72.90;;;;;;2305485;54;20980;-72
2021/12/06 03:02:59;;;;;;;5.25;2.03;;;5.80;73.10;;;;;;2535365;54;20967;-71
2021/12/06 03:05:26;;;;;;;4.80;1.85;;;5.90;73.20;;;;;;2305093;54;20978;-72
2021/12/06 03:07:57;;;;;;;4.75;1.80;;;5.90;73.20;;;;;;2314441;54;20927;-71
2021/12/06 03:10:24;;;;;;;3.47;1.83;;;5.90;73.20;;;;;;2561179;53;20961;-71
2021/12/06 03:12:50;;;;;;;3.80;1.80;;;5.90;73.20;;;;;;2553201;54;21511;-71
2021/12/06 03:15:17;;;;;;;3.62;1.90;;;6.00;73.30;;;;;;2300797;54;21053;-73
2021/12/06 03:17:45;;;;;;;3.87;1.90;;;6.00;73.30;;;;;;2297848;54;21063;-73
2021/12/06 03:20:14;;;;;;;3.42;1.75;;;6.00;73.30;;;;;;2287489;55;21951;-74
2021/12/06 03:22:42;;;;;;;3.65;1.70;;;6.00;73.20;;;;;;2314868;54;20979;-70
2021/12/06 03:25:09;;;;;;;3.20;1.70;;;6.10;73.30;;;;;;2314703;54;20979;-73
2021/12/06 03:27:36;;;;;;;3.65;1.83;;;6.10;73.30;;;;;;2313714;55;21006;-71
2021/12/06 03:30:03;;;;;;;5.37;1.83;;;6.10;73.20;;;;;;2319684;54;21734;-72
2021/12/06 03:32:30;;;;;;;4.93;2.05;;;6.20;73.90;;;;;;2553212;54;20951;-71
2021/12/06 03:34:56;;;;;;;3.65;1.90;;;6.20;73.10;;;;;;2529797;54;20968;-72
2021/12/06 03:37:22;;;;;;;4.45;2.00;;;6.20;73.10;;;;;;2310309;54;20904;-72
2021/12/06 03:39:49;;;;;;;4.12;2.03;;;6.20;73.10;;;;;;2555291;53;20991;-72
2021/12/06 03:42:18;;;;;;;5.97;2.67;;;6.20;73.10;;;;;;2320481;53;20934;-72
2021/12/06 03:44:45;;;;;;;5.10;2.20;;;6.20;73.00;;;;;;2558091;53;20985;-73
2021/12/06 03:47:18;;;;;;;5.03;2.60;;;6.20;72.80;;;;;;2314389;54;20935;-73
2021/12/06 03:49:44;;;;;;;5.93;2.47;;;6.20;72.60;;;;;;2523417;54;20995;-72
2021/12/06 03:55:38;;;;;;;4.35;2.20;;;6.30;72.50;;;;;;2553781;54;21014;-72
2021/12/06 03:58:05;;;;;;;4.82;2.10;;;6.30;72.70;;;;;;2315115;54;21047;-70
2021/12/06 04:00:31;;;;;;;4.53;2.30;;;6.20;72.70;;;;;;2314897;54;20947;-72
2021/12/06 04:02:58;;;;;;;4.20;2.08;;;6.30;72.80;;;;;;2555157;54;21003;-71
2021/12/06 04:05:28;;;;;;;3.72;1.90;;;6.30;72.70;;;;;;2315980;54;20902;-73
2021/12/06 04:07:54;;;;;;;3.72;1.90;;;6.30;72.70;;;;;;2313895;54;20947;-73
2021/12/06 04:10:26;;;;;;;5.07;2.22;;;6.30;72.60;;;;;;2555367;54;21014;-71
2021/12/06 04:12:55;;;;;;;4.30;2.22;;;6.30;72.60;;;;;;2554924;54;20931;-73
2021/12/06 04:15:21;;;;;;;3.92;2.00;;;6.30;72.60;;;;;;2318676;54;21940;-73
2021/12/06 04:17:48;;;;;;;5.40;1.87;;;6.30;72.60;;;;;;2311879;54;20964;-71
2021/12/06 04:20:14;;;;;;;4.05;1.98;;;6.30;72.60;;;;;;2297369;55;21019;-71
2021/12/06 04:22:40;;;;;;;4.05;2.10;;;6.30;72.60;;;;;;2560998;53;21012;-71
2021/12/06 04:25:09;;;;;;;6.47;2.85;;;6.30;72.60;;;;;;2554462;54;20936;-71
2021/12/06 04:27:36;;;;;;;5.75;2.45;;;6.30;72.60;;;;;;2291423;54;21422;-73
2021/12/06 04:30:03;;;;;;;4.60;2.12;;;6.30;72.60;;;;;;2314323;54;21771;-73
2021/12/06 04:32:29;;;;;;;4.30;2.28;;;6.30;72.60;;;;;;2554600;53;20948;-71
2021/12/06 04:34:56;;;;;;;4.57;2.37;;;6.30;72.60;;;;;;2553787;54;20999;-71
2021/12/06 04:37:22;;;;;;;5.18;2.53;;;6.30;72.60;;;;;;2523337;54;21006;-72
2021/12/06 04:39:49;;;;;;;5.15;2.70;;;6.30;72.60;;;;;;2542762;54;20950;-71
2021/12/06 04:42:17;;;;;;;4.60;2.40;;;6.30;72.50;;;;;;2316722;54;21055;-71
2021/12/06 04:44:44;;;;;;;5.50;2.40;;;6.30;72.50;;;;;;2299531;54;21760;-72
2021/12/06 04:47:13;;;;;;;5.30;2.75;;;6.30;72.50;;;;;;2552236;53;21015;-73
2021/12/06 04:49:39;;;;;;;4.18;2.50;;;6.30;72.40;;;;;;2554875;54;21000;-73
2021/12/06 04:52:07;;;;;;;5.40;2.55;;;6.30;72.40;;;;;;2321406;54;21008;-73
2021/12/06 04:54:35;;;;;;;4.85;2.58;;;6.30;72.40;;;;;;2296393;54;20956;-70
2021/12/06 04:57:14;;;;;;;4.93;2.58;;;6.30;72.40;;;;;;2542600;54;21104;-73
2021/12/06 04:59:43;;;;;;;5.47;2.30;;;6.30;72.40;;;;;;2317207;54;21083;-72
2021/12/06 05:02:16;;;;;;;4.90;2.37;;;6.30;72.40;;;;;;2560797;53;21519;-71
2021/12/06 05:04:47;;;;;;;4.43;2.30;;;6.30;72.40;;;;;;2314446;54;21814;-73
2021/12/06 05:07:17;;;;;;;5.55;2.90;;;6.30;72.40;;;;;;2553991;54;21806;-73
2021/12/06 05:09:43;;;;;;;5.50;2.22;;;6.30;72.40;;;;;;2520025;54;20902;-73
2021/12/06 05:12:14;;;;;;;5.12;2.90;;;6.30;72.40;;;;;;2318307;55;21020;-73
2021/12/06 05:14:40;;;;;;;5.40;3.05;;;6.30;72.40;;;;;;2292356;54;20935;-71
2021/12/06 05:17:06;;;;;;;6.18;3.20;;;6.30;72.30;;;;;;2291260;54;20985;-71
2021/12/06 05:19:32;;;;;;;6.22;2.80;;;6.30;72.40;;;;;;2554487;54;20993;-70
2021/12/06 05:22:02;;;;;;;6.18;2.80;;;6.30;72.40;;;;;;2314801;55;20941;-72
2021/12/06 05:24:29;;;;;;;4.57;2.65;;;6.30;72.40;;;;;;2315367;54;20991;-71
2021/12/06 05:26:56;;;;;;;6.50;3.17;;;6.30;72.50;;;;;;2548660;54;20975;-72
2021/12/06 05:29:26;;;;;;;5.18;3.10;;;6.30;72.50;;;;;;2292234;56;20967;-72
2021/12/06 05:31:57;;;;;;;5.25;2.80;;;6.30;72.60;;;;;;2503895;54;20956;-72
2021/12/06 05:34:41;;;;;;;5.95;3.10;;;6.30;72.60;;;;;;2312978;55;21004;-73
2021/12/06 05:37:09;;;;;;;4.40;2.58;;;6.30;72.60;;;;;;2293482;53;21861;-71
2021/12/06 05:39:36;;;;;;;5.05;2.85;;;6.30;72.70;;;;;;2557025;53;21032;-72
2021/12/06 05:42:04;;;;;;;7.85;3.30;;;6.30;72.70;;;;;;2314092;54;21040;-73
2021/12/06 05:44:31;;;;;;;5.55;2.60;;;6.30;72.60;;;;;;2572644;53;21715;-74
2021/12/06 05:46:58;;;;;;;7.62;3.22;;;6.40;72.70;;;;;;2563996;53;20990;-74
2021/12/06 05:49:28;;;;;;;6.07;3.67;;;6.40;72.80;;;;;;2546803;53;20937;-72
2021/12/06 05:51:58;;;;;;;5.57;3.20;;;6.40;72.80;;;;;;2553909;53;20932;-72
2021/12/06 05:54:24;;;;;;;9.18;4.43;;;6.40;72.80;;;;;;2587856;53;20989;-73
2021/12/06 05:56:50;;;;;;;6.78;3.85;;;6.40;72.80;;;;;;2341402;54;20983;-73
2021/12/06 05:59:18;;;;;;;6.28;3.62;;;6.40;72.80;;;;;;2554807;53;20947;-71
2021/12/06 06:01:47;;;;;;;6.90;3.85;;;6.40;72.80;;;;;;2578592;53;20917;-72
2021/12/06 06:04:13;;;;;;;6.72;3.92;;;6.50;72.90;;;;;;2550662;53;21760;-73
2021/12/06 06:06:40;;;;;;;8.13;4.07;;;6.50;72.90;;;;;;2337833;54;20913;-72
2021/12/06 06:09:06;;;;;;;6.97;3.28;;;6.50;72.90;;;;;;2341258;54;21011;-71
2021/12/06 06:11:35;;;;;;;4.68;2.97;;;6.50;73.60;;;;;;2587186;53;20913;-71
2021/12/06 06:14:03;;;;;;;4.87;3.03;;;6.50;72.90;;;;;;2339772;54;20964;-72
2021/12/06 06:16:33;;;;;;;5.10;3.12;;;6.50;72.80;;;;;;2339203;54;20949;-70
2021/12/06 06:18:59;;;;;;;5.57;3.75;;;6.50;72.80;;;;;;2336169;54;21639;-73
2021/12/06 06:21:27;;;;;;;7.00;3.20;;;6.50;72.80;;;;;;2561606;53;21506;-70
2021/12/06 06:23:53;;;;;;;6.15;3.25;;;6.50;72.70;;;;;;2325460;54;20899;-72
2021/12/06 06:26:19;;;;;;;5.32;3.42;;;6.50;72.70;;;;;;2575153;53;22110;-71
2021/12/06 06:28:46;;;;;;;5.30;3.30;;;6.50;72.70;;;;;;2566261;53;20902;-72
2021/12/06 06:31:12;;;;;;;6.62;3.87;;;6.50;72.70;;;;;;2329666;54;20940;-72
2021/12/06 06:33:39;;;;;;;6.75;4.05;;;6.50;72.80;;;;;;2340884;54;20953;-72
2021/12/06 06:36:06;;;;;;;6.93;4.10;;;6.50;72.80;;;;;;2322912;54;20938;-71
2021/12/06 06:38:33;;;;;;;6.45;3.65;;;6.60;72.90;;;;;;2553870;53;21438;-71
2021/12/06 06:40:59;;;;;;;6.22;3.80;;;6.60;72.90;;;;;;2575963;53;21010;-72
2021/12/06 06:43:26;;;;;;;5.55;3.58;;;6.60;72.90;;;;;;2340040;54;21092;-73
2021/12/06 06:45:52;;;;;;;6.25;3.67;;;6.60;72.90;;;;;;2340047;54;21005;-73
2021/12/06 06:48:18;;;;;;;6.15;4.05;;;6.60;73.00;;;;;;2326483;54;21824;-72
2021/12/06 06:50:44;;;;;;;6.05;3.80;;;6.60;73.00;;;;;;2330201;54;20976;-73
2021/12/06 06:53:11;;;;;;;6.65;3.90;;;6.60;73.10;;;;;;2320613;54;20983;-73
2021/12/06 06:55:37;;;;;;;6.55;3.45;;;6.60;73.10;;;;;;2335106;54;20982;-74
2021/12/06 06:58:04;;;;;;;6.10;4.18;;;6.60;73.10;;;;;;2339663;54;21389;-73
2021/12/06 07:00:33;;;;;;;7.35;4.05;;;6.70;73.20;;;;;;2323489;54;20935;-74
2021/12/06 07:03:00;;;;;;;6.07;4.15;;;6.70;73.10;;;;;;2313959;55;20961;-73
2021/12/06 07:05:28;;;;;;;5.55;3.50;;;6.70;73.00;;;;;;2339512;54;20929;-73
2021/12/06 07:07:55;;;;;;;5.87;3.50;;;6.70;72.90;;;;;;2585085;53;21000;-72
2021/12/06 07:10:23;;;;;;;4.93;3.17;;;6.70;72.90;;;;;;2316401;54;20950;-73
2021/12/06 07:12:52;;;;;;;5.93;3.20;;;6.70;72.90;;;;;;2585823;53;20981;-71
2021/12/06 07:15:23;;;;;;;5.53;3.45;;;6.70;72.90;;;;;;2340116;54;21024;-72
2021/12/06 07:17:51;;;;;;;5.53;2.83;;;6.70;73.00;;;;;;2328784;54;20943;-73
2021/12/06 07:20:17;;;;;;;5.18;3.05;;;6.70;73.00;;;;;;2330492;54;20986;-72
2021/12/06 07:22:44;;;;;;;6.05;3.22;;;6.90;73.30;;;;;;2317847;54;21433;-72
2021/12/06 07:25:10;;;;;;;5.70;3.30;;;6.70;73.10;;;;;;2568986;53;21027;-73
2021/12/06 07:27:37;;;;;;;5.53;3.00;;;6.80;73.30;;;;;;2569749;53;20996;-73
2021/12/06 07:30:04;;;;;;;4.87;2.75;;;6.80;73.30;;;;;;2339764;54;21865;-73
2021/12/06 07:32:31;;;;;;;6.72;3.87;;;6.80;73.40;;;;;;2586102;53;20940;-74
2021/12/06 07:34:57;;;;;;;5.60;3.42;;;6.80;73.30;;;;;;2581131;53;20940;-73
2021/12/06 07:37:23;;;;;;;6.30;4.00;;;6.80;73.30;;;;;;2556224;53;20918;-72
2021/12/06 07:39:50;;;;;;;5.87;3.28;;;6.90;73.50;;;;;;2586103;53;20956;-73
2021/12/06 07:42:16;;;;;;;5.75;3.47;;;6.90;73.50;;;;;;2339825;54;20957;-73
2021/12/06 07:44:44;;;;;;;6.78;3.87;;;6.90;73.50;;;;;;2324486;54;20926;-72
2021/12/06 07:47:10;;;;;;;5.12;3.15;;;6.90;73.40;;;;;;2333073;54;21832;-73
2021/12/06 07:49:37;;;;;;;6.22;3.40;;;6.90;73.40;;;;;;2340031;54;20965;-72
2021/12/06 07:52:17;;;;;;;6.03;3.60;;;7.00;73.50;;;;;;2339594;54;21529;-73
2021/12/06 07:54:46;;;;;;;5.25;3.42;;;7.00;73.40;;;;;;2339354;54;21390;-73
2021/12/06 07:57:13;;;;;;;5.65;3.20;;;7.00;73.50;;;;;;2340101;54;20960;-71
2021/12/06 07:59:40;;;;;;;4.97;3.22;;;7.00;73.50;;;;;;2586249;53;20948;-72
2021/12/06 08:02:09;;;;;;;7.20;4.10;;;7.00;73.50;;;;;;2585396;53;20937;-74
2021/12/06 08:04:37;;;;;;;6.55;3.70;;;7.00;73.50;;;;;;2586104;53;20944;-74
2021/12/06 08:07:05;;;;;;;6.40;3.70;;;7.00;73.50;;;;;;2585970;53;20980;-73
2021/12/06 08:09:31;;;;;;;5.68;3.92;;;7.10;73.70;;;;;;2338913;54;20960;-73
2021/12/06 08:11:58;;;;;;;6.37;3.25;;;7.10;73.70;;;;;;2316395;54;20957;-73
2021/12/06 08:14:25;;;;;;;6.95;3.80;;;7.10;73.70;;;;;;2328095;54;20958;-73
2021/12/06 08:16:52;;;;;;;7.55;3.60;;;7.20;73.80;;;;;;2324912;54;21039;-74
2021/12/06 08:19:19;;;;;;;5.68;3.50;;;7.20;73.80;;;;;;2563855;53;21016;-73
2021/12/06 08:21:46;;;;;;;6.65;3.95;;;7.20;73.90;;;;;;2323594;54;20969;-74
2021/12/06 08:24:12;;;;;;;7.20;4.43;;;7.30;74.00;;;;;;2578125;53;20952;-74
2021/12/06 08:26:41;;;;;;;8.13;4.82;;;7.30;74.00;;;;;;2578248;53;21096;-73
2021/12/06 08:29:08;;;;;;;7.90;4.53;;;7.30;73.90;;;;;;2317144;54;21714;-73
2021/12/06 08:31:35;;;;;;;8.65;4.70;;;7.30;73.80;;;;;;2340064;54;20949;-73
2021/12/06 08:34:01;;;;;;;6.55;4.45;;;7.40;73.60;;;;;;2317115;54;20946;-74
2021/12/06 08:36:28;;;;;;;8.57;5.07;;;7.40;73.50;;;;;;2585719;53;20933;-73
2021/12/06 08:38:58;;;;;;;8.65;4.93;;;7.40;73.50;;;;;;2339529;54;20924;-74
2021/12/06 08:41:27;;;;;;;34.97;12.93;;;7.40;74.20;;;;;;2340069;54;20961;-73
2021/12/06 08:43:53;;;;;;;29.98;11.90;;;7.40;73.40;;;;;;2339602;54;21461;-72
2021/12/06 08:46:29;;;;;;;21.33;9.50;;;7.40;73.30;;;;;;2585450;53;21020;-71
2021/12/06 08:48:55;;;;;;;17.00;7.68;;;7.40;73.30;;;;;;2323992;54;21101;-73
2021/12/06 08:51:33;;;;;;;15.55;7.95;;;7.40;73.50;;;;;;2565652;53;21012;-74
2021/12/06 08:54:00;;;;;;;17.40;10.15;;;7.50;73.50;;;;;;2340005;54;20933;-73
2021/12/06 08:56:27;;;;;;;12.63;7.45;;;7.50;73.70;;;;;;2315287;54;20992;-72
2021/12/06 08:58:53;;;;;;;11.27;6.62;;;7.50;73.80;;;;;;2568457;53;20923;-75
2021/12/06 09:01:20;;;;;;;9.70;5.85;;;7.50;73.90;;;;;;2327151;54;20941;-70
2021/12/06 09:04:02;;;;;;;11.20;6.00;;;7.60;74.00;;;;;;2339912;54;20996;-71
2021/12/06 09:06:28;;;;;;;9.27;5.35;;;7.60;73.90;;;;;;2585765;53;20941;-72
2021/12/06 09:08:55;;;;;;;9.75;5.55;;;7.60;73.90;;;;;;2339661;54;21528;-74
2021/12/06 09:11:21;;;;;;;8.85;5.22;;;7.60;73.90;;;;;;2586032;53;21080;-72
2021/12/06 09:13:48;;;;;;;7.65;4.55;;;7.70;74.00;;;;;;2324746;54;20963;-73
2021/12/06 09:16:14;;;;;;;8.50;5.57;;;7.70;74.00;;;;;;2332676;54;21375;-74
2021/12/06 09:18:42;;;;;;;9.50;5.82;;;7.70;74.10;;;;;;2339896;54;21024;-72
2021/12/06 09:21:12;;;;;;;9.02;5.62;;;7.80;74.00;;;;;;2340042;54;21064;-73
2021/12/06 09:23:40;;;;;;;8.48;5.60;;;7.80;73.90;;;;;;2340689;54;20980;-73
2021/12/06 09:26:06;;;;;;;8.80;5.45;;;7.80;73.80;;;;;;2330854;54;21519;-73
2021/12/06 09:28:33;;;;;;;7.57;5.05;;;7.80;74.00;;;;;;2563456;53;21023;-73
2021/12/06 09:31:01;;;;;;;8.38;4.82;;;7.90;74.10;;;;;;2319873;54;21094;-72
2021/12/06 09:33:29;;;;;;;7.40;4.82;;;7.90;74.20;;;;;;2582206;53;20988;-73
2021/12/06 09:35:58;;;;;;;7.78;5.00;;;7.90;74.30;;;;;;2339636;54;20945;-74
2021/12/06 09:38:28;;;;;;;8.45;5.00;;;8.00;74.40;;;;;;2339891;54;21711;-74
2021/12/06 09:40:55;;;;;;;8.05;4.78;;;8.00;74.30;;;;;;2340038;54;20996;-72
2021/12/06 09:43:22;;;;;;;8.13;5.43;;;8.10;74.50;;;;;;2585705;53;21024;-73
2021/12/06 09:45:49;;;;;;;7.80;5.18;;;8.10;74.50;;;;;;2562694;53;20973;-74
2021/12/06 09:48:16;;;;;;;7.03;4.45;;;8.20;74.70;;;;;;2566751;53;20989;-72
2021/12/06 09:50:52;;;;;;;8.15;4.72;;;8.20;74.80;;;;;;2318887;54;21035;-73
2021/12/06 09:53:21;;;;;;;8.55;5.05;;;8.30;74.80;;;;;;2316416;55;21009;-74
2021/12/06 09:55:49;;;;;;;7.20;4.87;;;8.30;74.80;;;;;;2340152;54;21044;-74
2021/12/06 09:58:17;;;;;;;7.87;5.10;;;8.40;74.80;;;;;;2567194;53;21077;-74
2021/12/06 10:00:46;;;;;;;9.07;5.55;;;8.40;74.80;;;;;;2543276;53;21446;-73
2021/12/06 10:03:15;;;;;;;10.23;4.85;;;8.50;74.80;;;;;;2563058;53;21478;-74
2021/12/06 10:05:42;;;;;;;7.18;4.68;;;8.50;74.60;;;;;;2323869;54;21069;-74
2021/12/06 10:08:09;;;;;;;8.25;4.80;;;8.50;74.40;;;;;;2566028;53;21935;-72
2021/12/06 10:10:35;;;;;;;8.20;5.32;;;8.60;74.40;;;;;;2585988;53;21009;-75
2021/12/06 10:13:01;;;;;;;8.73;4.50;;;8.60;74.30;;;;;;2335563;54;20994;-73
2021/12/06 10:15:28;;;;;;;7.55;4.53;;;8.60;74.30;;;;;;2321307;54;20992;-74
2021/12/06 10:17:56;;;;;;;7.62;4.80;;;8.70;74.40;;;;;;2585019;53;21069;-72
2021/12/06 10:20:25;;;;;;;6.68;4.32;;;8.70;74.40;;;;;;2329985;54;20943;-73
2021/12/06 10:22:54;;;;;;;8.07;5.18;;;8.70;74.50;;;;;;2565396;53;21107;-73
2021/12/06 10:25:42;;;;;;;11.48;4.82;;;8.80;74.50;;;;;;2316751;55;20991;-73
2021/12/06 10:28:11;;;;;;;9.25;5.12;;;8.80;74.40;;;;;;2320472;54;21922;-74
2021/12/06 10:30:43;;;;;;;8.00;5.43;;;8.80;74.30;;;;;;2336322;54;20952;-75
2021/12/06 10:33:11;;;;;;;9.10;5.35;;;8.90;74.30;;;;;;2585361;53;20949;-74
2021/12/06 10:35:45;;;;;;;8.25;5.35;;;8.90;74.20;;;;;;2549853;53;20941;-74
2021/12/06 10:38:11;;;;;;;10.30;5.45;;;8.90;73.90;;;;;;2321595;54;21015;-73
2021/12/06 10:40:39;;;;;;;8.15;5.12;;;8.90;73.70;;;;;;2531784;53;20939;-73
2021/12/06 10:43:13;;;;;;;6.80;4.55;;;9.00;73.70;;;;;;2337850;54;20993;-75
2021/12/06 10:45:47;;;;;;;7.05;4.37;;;9.00;73.60;;;;;;2576006;53;20994;-73
2021/12/06 10:48:17;;;;;;;7.87;4.87;;;9.10;73.60;;;;;;2326325;54;20969;-73
2021/12/06 10:51:32;;;;;;;9.70;5.68;;;9.00;73.40;;;;;;2557810;53;20957;-74
2021/12/06 10:54:03;;;;;;;8.75;5.68;;;9.00;73.10;;;;;;2327229;54;21086;-74
2021/12/06 10:56:47;;;;;;;9.45;5.10;;;9.00;73.00;;;;;;2287948;55;21025;-73
2021/12/06 10:59:24;;;;;;;10.05;5.82;;;9.00;72.90;;;;;;2585179;53;20933;-73
2021/12/06 11:01:52;;;;;;;8.77;4.95;;;9.00;72.90;;;;;;2340039;54;21056;-75
2021/12/06 11:04:20;;;;;;;8.68;5.62;;;9.00;73.10;;;;;;2565490;53;21014;-75
2021/12/06 11:06:50;;;;;;;7.87;4.97;;;9.00;73.10;;;;;;2330945;54;21020;-75
2021/12/06 11:09:21;;;;;;;10.93;6.25;;;9.00;73.20;;;;;;2327198;54;21140;-73
2021/12/06 11:11:51;;;;;;;10.18;6.43;;;9.00;73.10;;;;;;2574502;53;21524;-75
2021/12/06 11:14:21;;;;;;;10.98;6.72;;;9.00;73.00;;;;;;2340068;54;20932;-73
2021/12/06 11:16:57;;;;;;;12.65;7.05;;;9.00;73.00;;;;;;2326401;54;20966;-75
2021/12/06 11:19:25;;;;;;;9.52;6.07;;;9.00;73.00;;;;;;2332176;54;20941;-73
2021/12/06 11:21:56;;;;;;;9.55;6.20;;;9.00;73.10;;;;;;2339625;54;20996;-74
2021/12/06 11:24:43;;;;;;;10.77;6.53;;;9.00;73.90;;;;;;2585983;53;21025;-73
2021/12/06 11:27:11;;;;;;;10.48;7.03;;;9.00;72.80;;;;;;2334956;54;21895;-73
2021/12/06 11:29:43;;;;;;;10.30;7.65;;;9.00;72.90;;;;;;2321002;54;20937;-75
2021/12/06 11:32:33;;;;;;;12.43;6.97;;;9.00;72.50;;;;;;2339805;54;20968;-72
2021/12/06 11:35:03;;;;;;;11.27;7.70;;;9.00;72.40;;;;;;2585743;53;20921;-75
2021/12/06 11:37:49;;;;;;;12.05;6.60;;;9.00;72.50;;;;;;2296887;55;21061;-74
2021/12/06 11:40:25;;;;;;;9.05;6.07;;;9.00;72.60;;;;;;2310066;54;21022;-72
2021/12/06 11:43:06;;;;;;;12.18;6.45;;;9.00;72.70;;;;;;2553241;54;21005;-75
2021/12/06 11:46:32;;;;;;;9.48;6.35;;;9.00;72.70;;;;;;2315051;55;20953;-73
2021/12/06 11:48:59;;;;;;;8.93;6.00;;;9.00;71.90;;;;;;2316460;54;1385799;-72
2021/12/06 11:51:25;;;;;;;11.68;6.15;;;9.00;73.10;;;;;;2318825;54;20948;-74
2021/12/06 11:53:56;;;;;;;9.90;6.60;;;9.00;73.10;;;;;;2321662;54;20948;-75
2021/12/06 11:56:34;;;;;;;10.57;6.80;;;9.00;72.90;;;;;;2340690;54;20964;-73
2021/12/06 11:59:03;;;;;;;9.25;6.10;;;9.00;72.70;;;;;;2295143;55;21815;-74
2021/12/06 12:01:38;;;;;;;10.70;6.78;;;9.00;73.20;;;;;;2311797;55;20955;-72
2021/12/06 12:04:07;;;;;;;10.43;6.45;;;9.10;73.70;;;;;;2558989;53;22004;-73
2021/12/06 12:06:38;;;;;;;9.90;6.40;;;9.10;74.40;;;;;;2290109;55;21015;-75
2021/12/06 12:09:22;;;;;;;32.42;14.93;;;9.20;74.60;;;;;;2288020;55;21021;-75
2021/12/06 12:12:05;;;;;;;42.28;18.40;;;9.30;74.40;;;;;;2530640;54;21794;-74
2021/12/06 12:14:40;;;;;;;38.42;15.52;;;9.40;74.20;;;;;;2293587;55;21015;-74
2021/12/06 12:17:17;;;;;;;27.35;13.93;;;9.40;74.90;;;;;;2313237;54;20976;-72
2021/12/06 12:19:43;;;;;;;18.60;10.57;;;9.50;73.70;;;;;;2311421;55;21766;-73
2021/12/06 12:22:11;;;;;;;16.30;11.65;;;9.40;73.60;;;;;;2566030;53;21522;-73
2021/12/06 12:24:40;;;;;;;12.95;8.90;;;9.50;73.60;;;;;;2308752;55;21007;-72
2021/12/06 12:27:22;;;;;;;11.85;7.40;;;9.50;73.30;;;;;;2501615;55;21000;-73
2021/12/06 12:29:49;;;;;;;14.73;8.45;;;9.50;73.10;;;;;;2315993;54;21790;-73
2021/12/06 12:32:16;;;;;;;11.73;7.93;;;9.50;72.60;;;;;;2291850;54;20925;-75
2021/12/06 12:34:45;;;;;;;10.70;6.78;;;9.50;72.20;;;;;;2311694;54;20936;-75
2021/12/06 12:37:12;;;;;;;12.52;7.15;;;9.40;72.10;;;;;;2312496;54;20935;-73
2021/12/06 12:39:40;;;;;;;10.77;7.62;;;9.40;71.90;;;;;;2312168;54;20944;-73
2021/12/06 12:42:12;;;;;;;11.38;7.80;;;9.40;71.80;;;;;;2312589;54;20939;-74
2021/12/06 12:44:48;;;;;;;12.50;7.57;;;9.30;71.40;;;;;;2303328;55;22098;-74
2021/12/06 12:47:16;;;;;;;12.02;7.68;;;9.30;71.20;;;;;;2578510;53;20973;-75
2021/12/06 12:49:44;;;;;;;11.70;6.45;;;9.30;71.30;;;;;;2339210;54;21091;-73
2021/12/06 12:52:10;;;;;;;9.68;5.87;;;9.20;71.40;;;;;;2585284;53;20929;-73
2021/12/06 12:54:42;;;;;;;11.75;6.50;;;9.20;71.60;;;;;;2315965;55;20947;-73
2021/12/06 12:57:13;;;;;;;12.43;6.82;;;9.20;71.50;;;;;;2297919;55;21864;-74
2021/12/06 12:59:54;;;;;;;11.45;5.97;;;9.10;71.70;;;;;;2532987;53;20929;-74
2021/12/06 13:02:32;;;;;;;12.95;7.25;;;9.10;71.40;;;;;;2560087;53;21107;-75
2021/12/06 13:05:11;;;;;;;10.20;6.28;;;9.10;71.70;;;;;;2335046;54;21813;-73
2021/12/06 13:08:11;;;;;;;11.93;6.78;;;8.90;71.70;;;;;;2584986;53;20945;-73
2021/12/06 13:10:53;;;;;;;9.35;5.75;;;9.10;71.30;;;;;;2315959;55;21003;-74
2021/12/06 13:13:30;;;;;;;9.35;6.03;;;9.10;71.80;;;;;;2585352;53;21104;-74
2021/12/06 13:16:55;;;;;;;10.90;6.43;;;9.10;72.30;;;;;;2339485;54;21020;-74
2021/12/06 13:20:14;;;;;;;11.80;7.35;;;9.20;73.20;;;;;;2584791;53;20965;-74
2021/12/06 13:22:47;;;;;;;15.07;9.00;;;9.30;73.60;;;;;;2301579;54;20960;-74
2021/12/06 13:25:15;;;;;;;11.82;7.80;;;9.30;73.70;;;;;;2320379;54;21066;-73